Time;durP1;ratioP1;P1;durP2;ratioP2;P2;SDS_P1;SDS_P2;PMS_P1;PMS_P2;Temp;Humidity;BMP_temperature;BMP_pressure;BME280_temperature;BME280_humidity;BME280_pressure;Samples;Min_cycle;Max_cycle;Signal;HPM_P1;HPM_P2
2021/05/06 00:15:00;;;;;;;5.07;2.43;;;;;;;7.37;59.19;98974.01;153630;1096;103109;-77
2021/05/06 00:35:08;;;;;;;3.13;1.97;;;;;;;7.38;58.94;98996.91;153595;1099;103400;-78
2021/05/06 00:38:14;;;;;;;4.70;2.17;;;;;;;7.39;58.82;98998.55;153580;1104;103515;-76
2021/05/06 00:41:36;;;;;;;3.77;2.00;;;;;;;7.43;59.25;99000.73;153621;1096;103152;-76
2021/05/06 00:45:19;;;;;;;3.97;2.10;;;;;;;7.51;59.57;99002.58;153619;1104;103196;-78
2021/05/06 00:55:35;;;;;;;3.70;1.90;;;;;;;7.76;59.05;99024.66;153558;1100;103358;-77
2021/05/06 01:02:13;;;;;;;5.43;2.30;;;;;;;7.89;59.13;99026.83;153845;1096;103212;-78
2021/05/06 01:05:23;;;;;;;3.65;2.00;;;;;;;7.93;59.53;99027.30;153743;1096;103163;-77
2021/05/06 01:08:31;;;;;;;3.37;2.00;;;;;;;7.92;59.69;99021.17;153727;1104;103131;-77
2021/05/06 01:11:40;;;;;;;4.57;2.20;;;;;;;7.91;59.29;99032.80;153712;1104;104242;-77
2021/05/06 01:14:44;;;;;;;3.55;2.00;;;;;;;7.91;59.26;99037.27;153639;1096;103240;-77
2021/05/06 01:17:49;;;;;;;3.20;2.20;;;;;;;7.91;59.77;99051.40;153622;1104;103315;-79
2021/05/06 01:20:56;;;;;;;7.40;2.57;;;;;;;7.86;59.06;99043.91;153617;1096;103608;-77
2021/05/06 01:24:02;;;;;;;6.90;4.30;;;;;;;7.89;59.56;99047.23;153661;1104;103208;-75
2021/05/06 01:27:10;;;;;;;8.43;2.83;;;;;;;7.88;58.79;99053.55;153627;1104;103732;-77
2021/05/06 01:30:26;;;;;;;4.63;2.37;;;;;;;7.89;59.29;99053.39;153704;1104;103211;-77
2021/05/06 01:33:36;;;;;;;5.67;2.07;;;;;;;7.90;59.52;99049.72;153780;1104;103295;-75
2021/05/06 01:36:46;;;;;;;5.60;2.00;;;;;;;7.86;58.50;99048.39;153594;1104;103240;-78
2021/05/06 01:40:23;;;;;;;4.47;1.90;;;;;;;7.86;58.04;99053.71;153577;1104;103533;-80
2021/05/06 01:43:37;;;;;;;6.10;1.90;;;;;;;7.86;57.64;99051.05;153671;1096;103199;-79
2021/05/06 01:47:09;;;;;;;4.67;1.80;;;;;;;7.84;58.19;99056.52;153669;1096;103126;-78
2021/05/06 02:00:22;;;;;;;5.07;1.70;;;;;;;7.40;58.10;99063.92;153647;1096;103131;-77
2021/05/06 02:03:28;;;;;;;5.87;3.80;;;;;;;7.29;58.01;99062.39;153650;1096;103204;-77
2021/05/06 02:06:32;;;;;;;6.23;2.00;;;;;;;7.18;58.05;99060.02;153610;1096;103163;-78
2021/05/06 02:09:37;;;;;;;4.53;1.70;;;;;;;7.05;58.46;99061.31;153603;1102;103193;-79
2021/05/06 02:12:41;;;;;;;5.97;2.10;;;;;;;6.94;58.21;99074.03;153680;1104;103218;-78
2021/05/06 02:15:49;;;;;;;5.53;1.80;;;;;;;6.88;58.15;99083.45;153817;1104;103169;-79
2021/05/06 02:18:53;;;;;;;5.87;2.50;;;;;;;6.80;58.71;99084.24;153628;1104;103134;-76
2021/05/06 02:21:57;;;;;;;3.73;1.50;;;;;;;6.74;58.29;99073.45;153643;1096;103195;-77
2021/05/06 02:25:00;;;;;;;6.37;1.60;;;;;;;6.68;58.20;99075.73;153852;1104;103126;-80
2021/05/06 02:28:05;;;;;;;4.43;1.60;;;;;;;6.67;58.68;99078.53;153813;1104;103141;-80
2021/05/06 02:31:08;;;;;;;4.53;2.00;;;;;;;6.61;58.16;99073.87;153622;1104;103159;-77
2021/05/06 02:34:12;;;;;;;3.80;1.70;;;;;;;6.57;58.47;99080.47;153637;1096;103215;-76
2021/05/06 02:37:15;;;;;;;4.50;1.75;;;;;;;6.52;58.80;99083.57;153729;1096;103265;-77
2021/05/06 02:40:19;;;;;;;5.00;2.10;;;;;;;6.52;58.46;99085.40;153661;1104;103123;-77
2021/05/06 02:43:23;;;;;;;3.57;1.50;;;;;;;6.48;58.41;99096.30;153603;1104;103205;-77
2021/05/06 02:46:27;;;;;;;3.63;1.80;;;;;;;6.43;58.95;99093.30;153579;1104;103272;-79
2021/05/06 02:49:31;;;;;;;5.63;2.50;;;;;;;6.41;58.77;99089.13;153636;1104;103205;-77
2021/05/06 02:52:37;;;;;;;5.07;1.90;;;;;;;6.38;58.88;99097.40;153669;1104;103335;-76
2021/05/06 02:55:49;;;;;;;4.40;1.80;;;;;;;6.38;59.06;99110.65;153679;1096;103174;-77
2021/05/06 02:59:06;;;;;;;4.20;1.75;;;;;;;6.37;59.09;99108.97;153699;1104;103237;-73
2021/05/06 03:05:33;;;;;;;;;;;;;;;6.37;59.40;99130.16;153656;1104;103140;-72
2021/05/06 03:08:40;;;;;;;6.80;2.13;;;;;;;6.35;59.09;99132.99;153632;1096;103479;-72
2021/05/06 03:11:46;;;;;;;4.17;1.90;;;;;;;6.35;59.50;99137.44;153778;1104;103205;-72
2021/05/06 03:15:07;;;;;;;5.10;2.30;;;;;;;6.33;59.71;99144.70;153594;1104;103227;-73
2021/05/06 03:24:53;;;;;;;4.87;2.47;;;;;;;6.34;59.84;99154.33;153617;1096;103301;-73
2021/05/06 03:28:01;;;;;;;5.83;2.60;;;;;;;6.33;59.69;99160.60;153650;1104;103282;-75
2021/05/06 03:31:19;;;;;;;5.20;2.00;;;;;;;6.33;59.88;99171.20;153586;1096;103205;-74
2021/05/06 03:34:43;;;;;;;5.60;2.27;;;;;;;6.33;59.75;99177.33;153605;1104;103631;-76
2021/05/06 04:18:19;;;;;;;7.17;2.20;;;;;;;8.14;58.58;99216.30;153591;1097;103148;-69
2021/05/06 04:21:41;;;;;;;4.60;1.80;;;;;;;8.27;58.47;99223.77;153497;1096;103269;-70
2021/05/06 04:28:20;;;;;;;5.83;2.17;;;;;;;8.45;57.49;99229.83;153593;1104;103222;-75
2021/05/06 04:38:06;;;;;;;5.75;1.75;;;;;;;8.85;57.10;99251.27;153558;1104;103149;-68
2021/05/06 04:41:25;;;;;;;5.00;1.65;;;;;;;8.92;56.42;99246.95;153529;1104;103149;-67
2021/05/06 04:54:31;;;;;;;;;;;;;;;9.10;55.50;99262.72;153523;1104;103134;-69
2021/05/06 04:57:53;;;;;;;5.93;1.70;;;;;;;9.08;56.17;99253.25;153501;1104;103216;-68
2021/05/06 05:04:27;;;;;;;5.63;1.80;;;;;;;9.17;55.76;99253.08;153481;1097;103285;-68
2021/05/06 05:07:33;;;;;;;3.60;1.70;;;;;;;9.26;55.69;99266.36;153652;1104;103199;-68
2021/05/06 05:10:48;;;;;;;6.23;2.00;;;;;;;9.33;54.18;99265.52;153552;1097;103134;-70
2021/05/06 05:14:11;;;;;;;3.90;1.70;;;;;;;9.43;55.85;99266.19;153474;1104;103144;-69
2021/05/06 05:20:45;;;;;;;4.70;1.90;;;;;;;9.47;55.33;99282.66;153442;1104;103135;-69
2021/05/06 05:23:51;;;;;;;4.67;2.00;;;;;;;9.50;54.82;99271.64;153465;1104;103142;-70
2021/05/06 05:26:54;;;;;;;6.93;1.90;;;;;;;9.51;55.08;99272.50;153462;1096;103150;-70
2021/05/06 05:29:58;;;;;;;5.10;1.70;;;;;;;9.60;54.90;99279.44;153413;1097;103205;-67
2021/05/06 05:33:06;;;;;;;3.87;1.63;;;;;;;9.66;54.61;99262.80;153534;1096;103145;-68
2021/05/06 05:36:14;;;;;;;5.13;1.90;;;;;;;9.76;55.09;99279.41;153491;1096;103177;-68
2021/05/06 05:39:23;;;;;;;5.53;2.20;;;;;;;9.85;54.19;99279.36;153563;1104;103200;-70
2021/05/06 05:42:36;;;;;;;5.03;1.97;;;;;;;9.76;52.93;99290.06;153462;1097;103287;-71
2021/05/06 05:55:41;;;;;;;4.27;1.60;;;;;;;9.33;53.88;99283.33;153721;1104;103144;-69
2021/05/06 05:58:44;;;;;;;5.10;1.93;;;;;;;9.33;53.43;99276.16;153520;1104;103119;-68
2021/05/06 06:01:48;;;;;;;6.25;2.00;;;;;;;9.33;52.83;99284.16;153476;1104;103134;-68
2021/05/06 06:04:51;;;;;;;9.40;6.35;;;;;;;9.29;52.90;99290.81;153464;1104;103134;-70
2021/05/06 06:07:55;;;;;;;9.23;2.33;;;;;;;9.21;52.82;99285.52;153534;1104;103205;-70
2021/05/06 06:10:59;;;;;;;6.05;2.10;;;;;;;9.24;52.69;99290.52;153497;1104;103151;-68
2021/05/06 06:14:05;;;;;;;16.63;10.67;;;;;;;9.23;53.17;99289.66;153469;1104;103126;-68
2021/05/06 06:17:09;;;;;;;4.53;2.00;;;;;;;9.26;53.02;99300.97;153469;1104;103135;-67
2021/05/06 06:20:14;;;;;;;7.13;2.00;;;;;;;9.25;51.63;99300.14;153481;1102;103201;-69
2021/05/06 06:23:18;;;;;;;6.13;1.93;;;;;;;9.15;51.33;99296.83;153548;1104;103296;-69
2021/05/06 06:26:22;;;;;;;3.67;1.80;;;;;;;9.10;51.64;99296.50;153489;1096;103172;-68
2021/05/06 06:29:30;;;;;;;4.30;1.60;;;;;;;9.13;51.29;99296.17;153530;1104;103138;-68
2021/05/06 06:32:34;;;;;;;6.33;2.00;;;;;;;9.11;51.29;99287.53;153471;1104;103124;-68
2021/05/06 06:35:37;;;;;;;17.15;10.80;;;;;;;9.11;51.58;99291.02;153558;1104;103228;-69
2021/05/06 06:38:41;;;;;;;5.83;2.53;;;;;;;9.06;52.10;99285.34;153628;1104;103184;-68
2021/05/06 06:41:47;;;;;;;5.20;1.80;;;;;;;9.10;51.81;99296.50;153732;1097;103132;-68
2021/05/06 06:44:51;;;;;;;6.73;1.80;;;;;;;9.19;51.24;99301.64;153542;1104;103352;-69
2021/05/06 06:47:55;;;;;;;4.37;1.87;;;;;;;9.15;50.21;99299.50;153484;1104;103204;-67
2021/05/06 06:50:59;;;;;;;5.67;1.70;;;;;;;9.10;50.44;99289.34;153495;1104;103112;-69
2021/05/06 06:54:03;;;;;;;4.07;1.77;;;;;;;9.14;51.83;99304.00;153453;1104;103296;-68
2021/05/06 06:57:09;;;;;;;8.87;3.17;;;;;;;9.24;51.65;99306.48;153494;1104;103268;-68
2021/05/06 07:00:14;;;;;;;6.57;1.67;;;;;;;9.38;51.27;99305.78;153500;1104;103170;-67
2021/05/06 07:03:18;;;;;;;4.07;1.73;;;;;;;9.52;50.38;99312.25;153486;1104;103238;-67
2021/05/06 07:06:22;;;;;;;6.47;1.73;;;;;;;9.57;50.79;99301.92;153490;1096;103649;-67
2021/05/06 07:09:26;;;;;;;4.05;1.70;;;;;;;9.63;51.16;99325.21;153502;1104;103305;-68
2021/05/06 07:12:31;;;;;;;5.60;1.87;;;;;;;9.74;50.87;99326.70;153704;1104;103494;-69
2021/05/06 07:15:34;;;;;;;6.10;1.90;;;;;;;9.78;48.33;99325.34;153476;1096;103202;-68
2021/05/06 07:18:38;;;;;;;42.30;27.05;;;;;;;9.72;49.17;99327.84;153453;1104;103209;-69
2021/05/06 07:21:41;;;;;;;6.53;3.17;;;;;;;9.78;48.91;99328.02;153501;1096;103128;-68
2021/05/06 07:24:45;;;;;;;5.63;2.23;;;;;;;9.88;49.74;99342.98;153600;1104;103515;-70
2021/05/06 07:27:48;;;;;;;5.55;1.40;;;;;;;9.97;49.35;99333.97;153745;1096;103138;-69
2021/05/06 07:30:53;;;;;;;3.40;1.43;;;;;;;10.05;49.91;99349.92;153596;1104;103202;-69
2021/05/06 07:33:56;;;;;;;3.70;1.40;;;;;;;10.20;49.24;99331.38;153479;1096;103167;-70
2021/05/06 07:37:00;;;;;;;4.27;1.77;;;;;;;10.28;47.65;99341.17;153523;1104;103320;-68
2021/05/06 07:40:05;;;;;;;4.27;1.43;;;;;;;10.32;47.62;99340.67;153445;1096;103200;-70
2021/05/06 07:43:10;;;;;;;3.93;1.47;;;;;;;10.44;49.36;99338.45;153575;1097;103160;-69
2021/05/06 07:46:14;;;;;;;20.17;6.47;;;;;;;10.64;48.94;99343.34;153481;1096;103137;-67
2021/05/06 07:49:18;;;;;;;6.13;2.13;;;;;;;10.71;48.06;99344.30;153372;1105;103120;-68
2021/05/06 07:52:22;;;;;;;5.93;1.83;;;;;;;10.65;47.86;99351.17;153351;1104;103203;-69
2021/05/06 07:55:26;;;;;;;3.37;1.50;;;;;;;10.72;47.45;99340.61;153548;1104;103293;-70
2021/05/06 07:58:29;;;;;;;3.43;1.47;;;;;;;10.80;46.85;99340.58;153466;1104;103206;-67
2021/05/06 08:01:33;;;;;;;5.20;2.10;;;;;;;10.90;47.15;99354.51;153450;1104;103211;-69
2021/05/06 08:04:37;;;;;;;5.00;1.75;;;;;;;10.97;45.56;99349.28;153461;1104;104383;-68
2021/05/06 08:07:41;;;;;;;4.30;1.60;;;;;;;11.00;47.98;99343.59;153496;1104;103135;-69
2021/05/06 08:10:45;;;;;;;5.60;2.00;;;;;;;11.00;45.55;99340.92;153634;1104;103209;-70
2021/05/06 08:13:48;;;;;;;8.93;3.13;;;;;;;10.91;45.49;99345.52;153495;1104;103212;-71
2021/05/06 08:16:53;;;;;;;9.60;3.30;;;;;;;10.80;45.58;99349.41;153636;1097;103150;-68
2021/05/06 08:19:57;;;;;;;8.33;2.47;;;;;;;10.78;46.69;99345.27;153675;1097;103249;-68
2021/05/06 08:23:01;;;;;;;6.97;1.87;;;;;;;10.90;46.19;99349.17;153525;1104;103208;-72
2021/05/06 08:26:05;;;;;;;5.63;1.90;;;;;;;10.97;47.27;99354.61;153463;1104;103275;-69
2021/05/06 08:29:08;;;;;;;5.35;2.50;;;;;;;10.98;45.71;99348.28;153502;1104;103659;-70
2021/05/06 08:32:12;;;;;;;5.27;2.00;;;;;;;10.90;46.62;99354.51;153450;1097;103131;-69
2021/05/06 08:35:15;;;;;;;4.10;2.17;;;;;;;11.00;47.63;99351.60;153437;1104;103204;-68
2021/05/06 08:38:19;;;;;;;6.13;2.40;;;;;;;11.09;46.38;99352.39;153462;1097;103207;-69
2021/05/06 08:41:23;;;;;;;7.13;3.33;;;;;;;11.02;46.87;99359.44;153611;1104;103200;-69
2021/05/06 08:44:30;;;;;;;7.10;2.70;;;;;;;11.06;45.91;99369.57;153505;1104;103619;-69
2021/05/06 08:47:34;;;;;;;6.37;3.50;;;;;;;10.99;46.92;99372.14;153450;1097;103279;-70
2021/05/06 08:50:39;;;;;;;4.50;2.20;;;;;;;10.93;46.46;99363.99;153727;1097;103147;-69
2021/05/06 08:53:44;;;;;;;4.27;1.90;;;;;;;10.93;45.23;99370.18;153629;1104;103578;-69
2021/05/06 08:56:48;;;;;;;4.80;2.07;;;;;;;11.08;45.68;99356.05;153584;1104;103526;-69
2021/05/06 08:59:53;;;;;;;7.27;3.03;;;;;;;11.21;46.27;99356.28;153592;1096;103207;-69
2021/05/06 09:02:57;;;;;;;5.55;3.15;;;;;;;11.32;46.05;99360.38;153479;1104;103142;-68
2021/05/06 09:06:18;;;;;;;6.65;2.80;;;;;;;11.40;46.78;99350.44;153468;1097;103213;-68
2021/05/06 09:09:22;;;;;;;5.37;3.10;;;;;;;11.56;45.22;99359.31;153587;1104;103205;-69
2021/05/06 09:12:37;;;;;;;6.03;3.07;;;;;;;11.61;44.27;99361.47;153490;1104;103228;-69
2021/05/06 09:15:49;;;;;;;7.70;4.07;;;;;;;11.62;43.71;99352.42;153655;1104;103160;-68
2021/05/06 09:18:53;;;;;;;9.13;4.80;;;;;;;11.67;44.78;99356.20;153604;1104;103321;-69
2021/05/06 09:21:57;;;;;;;4.43;2.70;;;;;;;11.72;44.65;99359.17;153464;1104;103205;-69
2021/05/06 09:25:24;;;;;;;5.47;2.37;;;;;;;11.88;45.53;99352.81;153494;1097;103483;-69
2021/05/06 09:28:29;;;;;;;3.83;1.97;;;;;;;12.08;44.36;99347.77;153509;1097;103289;-68
2021/05/06 09:31:36;;;;;;;4.77;1.90;;;;;;;12.15;43.42;99361.24;153578;1097;103211;-69
2021/05/06 09:34:41;;;;;;;4.80;1.80;;;;;;;12.21;43.52;99370.38;153571;1097;103201;-69
2021/05/06 09:37:49;;;;;;;5.27;2.80;;;;;;;12.27;41.53;99361.60;153498;1097;103134;-69
2021/05/06 09:40:53;;;;;;;3.40;2.00;;;;;;;12.24;43.04;99362.81;153478;1104;103142;-71
2021/05/06 09:44:09;;;;;;;3.65;1.90;;;;;;;12.29;43.53;99359.56;153483;1097;103378;-70
2021/05/06 09:47:17;;;;;;;2.20;1.67;;;;;;;12.31;43.08;99363.70;153532;1096;103135;-69
2021/05/06 09:50:26;;;;;;;3.73;1.80;;;;;;;12.31;43.89;99370.91;153672;1104;103138;-69
2021/05/06 09:53:32;;;;;;;3.40;1.90;;;;;;;12.34;42.89;99375.90;153477;1104;103156;-68
2021/05/06 09:56:37;;;;;;;4.53;2.10;;;;;;;12.42;43.71;99357.06;153500;1104;103236;-68
2021/05/06 09:59:40;;;;;;;3.63;2.10;;;;;;;12.47;42.50;99361.84;153486;1104;103266;-69
2021/05/06 10:02:44;;;;;;;5.17;2.20;;;;;;;12.54;42.94;99363.58;153652;1104;103227;-68
2021/05/06 10:05:50;;;;;;;3.77;2.03;;;;;;;12.62;41.44;99365.31;153525;1104;103215;-69
2021/05/06 10:09:03;;;;;;;4.85;2.25;;;;;;;12.71;42.06;99371.40;153463;1096;103166;-70
2021/05/06 10:12:08;;;;;;;5.60;2.27;;;;;;;12.82;41.89;99359.34;153503;1104;103209;-70
2021/05/06 10:15:14;;;;;;;4.20;2.30;;;;;;;12.91;41.74;99368.92;153495;1096;103275;-68
2021/05/06 10:18:19;;;;;;;5.03;2.20;;;;;;;13.05;42.06;99375.23;153529;1096;103177;-70
2021/05/06 10:21:23;;;;;;;3.23;1.90;;;;;;;13.31;42.77;99358.63;153490;1096;103259;-70
2021/05/06 10:24:28;;;;;;;3.67;2.27;;;;;;;13.55;42.07;99360.90;153444;1096;103196;-70
2021/05/06 10:27:32;;;;;;;4.13;2.80;;;;;;;13.67;39.62;99371.91;153524;1104;103215;-70
2021/05/06 10:30:36;;;;;;;4.45;2.18;;;;;;;13.78;42.12;99373.24;153513;1096;103280;-70
2021/05/06 10:33:44;;;;;;;3.47;2.13;;;;;;;13.91;41.90;99357.24;153619;1104;103140;-69
2021/05/06 10:36:49;;;;;;;4.07;2.20;;;;;;;13.96;41.93;99359.32;153658;1104;103153;-70
2021/05/06 10:39:53;;;;;;;3.00;2.17;;;;;;;13.85;38.38;99365.23;153453;1104;103145;-70
2021/05/06 10:42:58;;;;;;;4.07;2.20;;;;;;;13.87;41.38;99355.13;153485;1104;103145;-70
2021/05/06 10:46:04;;;;;;;3.90;2.10;;;;;;;13.97;40.96;99369.01;153470;1104;103298;-69
2021/05/06 10:49:07;;;;;;;3.33;1.90;;;;;;;14.06;40.36;99367.02;153551;1096;103150;-69
2021/05/06 10:52:13;;;;;;;3.33;1.80;;;;;;;14.05;40.18;99368.88;153504;1104;103142;-70
2021/05/06 10:55:37;;;;;;;3.50;1.90;;;;;;;14.19;40.54;99366.27;153608;1104;103620;-71
2021/05/06 10:58:40;;;;;;;4.03;2.00;;;;;;;14.36;38.54;99364.05;153507;1096;103224;-69
2021/05/06 11:01:44;;;;;;;3.20;2.30;;;;;;;14.36;39.06;99362.22;153455;1096;103298;-69
2021/05/06 11:04:47;;;;;;;3.87;2.20;;;;;;;14.31;37.65;99372.72;153536;1096;103124;-69
2021/05/06 11:08:28;;;;;;;4.03;2.70;;;;;;;14.42;38.71;99372.16;153448;1104;103109;-70
2021/05/06 11:11:31;;;;;;;4.03;2.40;;;;;;;14.40;38.48;99352.73;153534;1096;103153;-70
2021/05/06 11:14:35;;;;;;;4.40;2.23;;;;;;;14.53;40.02;99362.71;153473;1096;103126;-70
2021/05/06 11:17:43;;;;;;;4.83;2.60;;;;;;;14.78;39.64;99354.97;153456;1104;103608;-70
2021/05/06 11:20:52;;;;;;;4.10;2.40;;;;;;;14.99;40.30;99359.36;153499;1104;103152;-70
2021/05/06 11:24:11;;;;;;;5.47;2.60;;;;;;;15.22;40.07;99350.06;153549;1096;103171;-70
2021/05/06 11:27:16;;;;;;;4.13;2.50;;;;;;;15.35;40.43;99360.83;153483;1104;103126;-70
2021/05/06 11:30:37;;;;;;;3.00;2.23;;;;;;;15.51;39.20;99344.30;153472;1104;103137;-70
2021/05/06 11:33:41;;;;;;;4.33;2.37;;;;;;;15.59;39.92;99350.48;153602;1096;103157;-70
2021/05/06 11:36:45;;;;;;;3.40;2.40;;;;;;;15.50;37.80;99352.56;153513;1104;103135;-72
2021/05/06 11:39:58;;;;;;;4.90;2.55;;;;;;;15.40;39.23;99350.30;153454;1096;103112;-70
2021/05/06 11:43:02;;;;;;;4.30;2.40;;;;;;;15.42;38.10;99337.47;153429;1104;103200;-70
2021/05/06 11:46:06;;;;;;;3.17;2.53;;;;;;;15.56;38.73;99334.78;153474;1104;103176;-70
2021/05/06 11:49:13;;;;;;;2.70;1.87;;;;;;;15.78;38.51;99330.02;153555;1104;103595;-69
2021/05/06 11:52:33;;;;;;;3.13;1.80;;;;;;;15.87;38.44;99337.64;153624;1096;103134;-70
2021/05/06 11:55:41;;;;;;;2.93;2.13;;;;;;;15.97;38.77;99339.90;153501;1104;103212;-71
2021/05/06 11:58:44;;;;;;;4.07;1.77;;;;;;;16.00;38.93;99341.36;153657;1096;103203;-70
2021/05/06 12:01:48;;;;;;;2.57;1.60;;;;;;;15.89;36.37;99342.83;153510;1104;103161;-70
2021/05/06 12:04:53;;;;;;;4.37;2.03;;;;;;;15.50;35.03;99336.44;153409;1096;103207;-70
2021/05/06 12:08:06;;;;;;;3.20;1.77;;;;;;;15.36;36.49;99334.77;153536;1104;103152;-71
2021/05/06 12:11:10;;;;;;;4.35;2.10;;;;;;;15.38;35.00;99348.86;153595;1104;103131;-70
2021/05/06 12:14:14;;;;;;;3.27;1.90;;;;;;;15.26;37.61;99340.55;153521;1104;103182;-70
2021/05/06 12:17:21;;;;;;;4.20;2.00;;;;;;;15.17;37.06;99357.94;153453;1104;103197;-70
2021/05/06 12:20:24;;;;;;;3.47;2.10;;;;;;;14.95;36.94;99376.07;153549;1104;103202;-69
2021/05/06 12:23:28;;;;;;;10.30;2.80;;;;;;;14.56;38.72;99377.58;153464;1096;103204;-72
2021/05/06 12:26:32;;;;;;;4.07;2.20;;;;;;;14.09;40.55;99378.18;153475;1096;103211;-71
2021/05/06 12:29:36;;;;;;;3.20;2.03;;;;;;;13.64;40.43;99368.79;153487;1096;103267;-70
2021/05/06 12:32:46;;;;;;;7.57;5.27;;;;;;;13.75;40.04;99366.39;153441;1096;103212;-70
2021/05/06 12:35:51;;;;;;;9.10;4.40;;;;;;;13.97;39.77;99352.09;153560;1104;103555;-70
2021/05/06 12:38:58;;;;;;;3.80;1.73;;;;;;;13.96;39.77;99345.91;153599;1104;103200;-70
2021/05/06 12:42:05;;;;;;;5.97;2.23;;;;;;;13.79;39.12;99342.70;153518;1104;103138;-70
2021/05/06 12:45:26;;;;;;;4.15;2.60;;;;;;;13.68;38.75;99349.45;153484;1096;103269;-70
2021/05/06 12:48:43;;;;;;;8.87;4.43;;;;;;;13.70;39.32;99344.73;153535;1097;103134;-70
2021/05/06 12:51:47;;;;;;;6.87;2.97;;;;;;;13.75;39.05;99350.31;153559;1096;103303;-70
2021/05/06 12:54:50;;;;;;;3.33;1.97;;;;;;;13.70;39.01;99347.41;153670;1104;103577;-70
2021/05/06 12:58:12;;;;;;;4.70;1.90;;;;;;;13.79;39.20;99347.25;153422;1096;103222;-69
2021/05/06 13:01:16;;;;;;;17.73;12.40;;;;;;;13.63;38.74;99349.20;153546;1104;103129;-70
2021/05/06 13:04:20;;;;;;;11.63;5.77;;;;;;;13.59;38.95;99345.27;153580;1096;103125;-72
2021/05/06 13:07:26;;;;;;;8.87;4.80;;;;;;;13.50;38.55;99338.38;153480;1104;103476;-69
2021/05/06 13:10:43;;;;;;;3.60;2.73;;;;;;;13.54;38.62;99326.25;153603;1096;103200;-71
2021/05/06 13:13:48;;;;;;;4.30;3.33;;;;;;;13.60;38.59;99330.82;153547;1102;103227;-70
2021/05/06 13:16:51;;;;;;;3.77;2.23;;;;;;;13.62;35.89;99330.63;153563;1097;103144;-71
2021/05/06 13:19:56;;;;;;;2.47;1.90;;;;;;;13.57;37.94;99328.55;153527;1097;103588;-70
2021/05/06 13:23:06;;;;;;;3.20;2.10;;;;;;;13.53;37.20;99319.25;153520;1097;103126;-69
2021/05/06 13:26:09;;;;;;;4.40;2.73;;;;;;;13.55;37.31;99319.88;153489;1096;103211;-69
2021/05/06 13:29:15;;;;;;;8.95;6.30;;;;;;;13.71;37.91;99332.96;153502;1104;103196;-71
2021/05/06 13:32:30;;;;;;;29.77;17.10;;;;;;;14.09;36.95;99329.07;153497;1097;103141;-70
2021/05/06 13:35:33;;;;;;;11.48;5.63;;;;;;;14.12;37.94;99336.70;153486;1096;103148;-70
2021/05/06 13:38:54;;;;;;;52.10;21.90;;;;;;;14.12;37.79;99325.97;153439;1097;103271;-72
2021/05/06 13:41:59;;;;;;;5.37;3.33;;;;;;;14.03;38.45;99319.97;153547;1104;103219;-72
2021/05/06 13:45:03;;;;;;;3.80;2.40;;;;;;;14.04;38.11;99324.28;153494;1097;103139;-69
2021/05/06 13:48:08;;;;;;;8.40;4.77;;;;;;;14.09;38.11;99312.98;153512;1104;103524;-70
2021/05/06 13:51:14;;;;;;;4.57;2.70;;;;;;;14.22;38.53;99312.19;153646;1096;103205;-70
2021/05/06 13:54:19;;;;;;;4.93;2.50;;;;;;;14.27;37.67;99305.20;153597;1097;103310;-70
2021/05/06 13:57:22;;;;;;;4.20;2.70;;;;;;;14.27;35.95;99299.83;153614;1096;103138;-70
2021/05/06 14:00:26;;;;;;;3.50;2.43;;;;;;;14.19;37.56;99300.02;153543;1097;103123;-70
2021/05/06 14:03:30;;;;;;;3.87;2.53;;;;;;;14.23;35.41;99300.44;153507;1104;103143;-70
2021/05/06 14:06:34;;;;;;;4.43;2.70;;;;;;;14.16;37.02;99278.12;153564;1097;103208;-70
2021/05/06 14:09:37;;;;;;;11.90;7.15;;;;;;;14.25;36.75;99293.02;153489;1096;103280;-70
2021/05/06 14:12:41;;;;;;;7.97;6.07;;;;;;;14.28;36.19;99290.77;153648;1104;103138;-71
2021/05/06 14:15:44;;;;;;;5.27;2.80;;;;;;;14.28;36.86;99290.77;153598;1097;103138;-70
2021/05/06 14:18:49;;;;;;;3.67;2.70;;;;;;;14.36;37.14;99287.08;153605;1096;103158;-70
2021/05/06 14:21:55;;;;;;;4.30;3.00;;;;;;;14.43;37.36;99282.53;153662;1105;103157;-71
2021/05/06 14:24:58;;;;;;;4.80;3.00;;;;;;;14.58;37.17;99273.53;153582;1097;103280;-70
2021/05/06 14:28:03;;;;;;;4.73;3.27;;;;;;;14.63;36.69;99276.45;153506;1104;103142;-71
2021/05/06 14:31:07;;;;;;;4.30;3.57;;;;;;;14.67;36.54;99272.32;153529;1096;103158;-70
2021/05/06 14:34:11;;;;;;;3.23;2.53;;;;;;;14.75;37.05;99280.17;153542;1104;103172;-70
2021/05/06 14:37:14;;;;;;;685.80;408.00;;;;;;;14.85;37.09;99275.22;153576;1096;103135;-71
2021/05/06 14:40:18;;;;;;;53.50;27.20;;;;;;;14.90;37.26;99262.02;153502;1104;103315;-70
2021/05/06 14:43:24;;;;;;;15.57;8.90;;;;;;;14.94;37.54;99249.00;153856;1096;103231;-73
2021/05/06 14:46:27;;;;;;;9.20;5.53;;;;;;;15.06;37.15;99254.58;153539;1104;103142;-71
2021/05/06 14:49:31;;;;;;;5.60;2.75;;;;;;;15.19;37.09;99256.45;153968;1104;103141;-69
2021/05/06 14:52:34;;;;;;;87.25;66.15;;;;;;;15.20;36.60;99263.45;153493;1096;103200;-70
2021/05/06 14:55:38;;;;;;;6.40;4.27;;;;;;;15.10;35.70;99261.19;153440;1104;103788;-70
2021/05/06 14:58:42;;;;;;;4.23;3.10;;;;;;;14.97;37.25;99255.81;153522;1096;103251;-70
2021/05/06 15:01:45;;;;;;;13.17;8.90;;;;;;;14.88;36.75;99253.34;153454;1096;103589;-70
2021/05/06 15:04:49;;;;;;;6.00;2.90;;;;;;;14.63;36.56;99260.34;153445;1096;103160;-70
2021/05/06 15:07:53;;;;;;;4.63;2.47;;;;;;;14.38;36.83;99262.73;153432;1104;103152;-71
2021/05/06 15:10:56;;;;;;;3.50;2.60;;;;;;;14.17;36.56;99279.79;153747;1104;103141;-69
2021/05/06 15:14:00;;;;;;;4.13;2.00;;;;;;;13.90;36.61;99293.08;153797;1096;103230;-72
2021/05/06 15:17:03;;;;;;;3.37;1.80;;;;;;;13.68;37.00;99285.12;153729;1096;103323;-69
2021/05/06 15:20:08;;;;;;;4.67;3.00;;;;;;;13.54;37.27;99283.36;153732;1096;103266;-70
2021/05/06 15:23:12;;;;;;;143.73;60.97;;;;;;;13.40;37.38;99292.34;153851;1104;103196;-70
2021/05/06 15:26:16;;;;;;;16.80;8.85;;;;;;;13.15;36.89;99293.56;153504;1096;103259;-70
2021/05/06 15:29:19;;;;;;;5.70;3.57;;;;;;;12.86;37.62;99297.22;153895;1104;103256;-72
2021/05/06 15:32:23;;;;;;;4.13;2.80;;;;;;;12.57;39.03;99320.39;153585;1096;103264;-70
2021/05/06 15:35:27;;;;;;;5.70;4.00;;;;;;;12.30;39.19;99310.42;153631;1096;103541;-72
2021/05/06 15:38:30;;;;;;;4.43;3.00;;;;;;;12.24;39.04;99335.21;153515;1104;103138;-70
2021/05/06 15:41:34;;;;;;;5.03;4.03;;;;;;;12.25;39.84;99329.69;153456;1097;103554;-71
2021/05/06 15:44:38;;;;;;;4.73;3.43;;;;;;;12.21;39.92;99322.23;153722;1104;103128;-71
2021/05/06 15:47:42;;;;;;;5.87;3.90;;;;;;;12.18;40.30;99316.24;153746;1097;103201;-75
2021/05/06 15:50:46;;;;;;;7.20;4.27;;;;;;;12.26;40.43;99311.78;153700;1104;103138;-73
2021/05/06 15:53:49;;;;;;;10.77;5.93;;;;;;;12.38;40.66;99310.30;153690;1096;103133;-74
2021/05/06 15:56:53;;;;;;;9.20;6.17;;;;;;;12.42;40.63;99300.05;153651;1104;103286;-75
2021/05/06 15:59:56;;;;;;;7.75;5.05;;;;;;;12.57;40.57;99284.79;153667;1104;103175;-71
2021/05/06 16:03:02;;;;;;;6.00;3.60;;;;;;;12.61;40.41;99283.38;153701;1104;103166;-72
2021/05/06 16:06:06;;;;;;;3.93;2.90;;;;;;;12.74;41.33;99283.52;153647;1104;103209;-71
2021/05/06 16:09:10;;;;;;;3.90;2.70;;;;;;;12.81;40.83;99278.22;153672;1097;103137;-73
2021/05/06 16:12:13;;;;;;;3.13;2.40;;;;;;;12.84;41.13;99274.34;153734;1104;103200;-72
2021/05/06 16:15:18;;;;;;;3.43;2.50;;;;;;;12.79;41.19;99268.73;153686;1097;103203;-72
2021/05/06 16:18:22;;;;;;;3.90;2.27;;;;;;;12.73;41.15;99257.75;153755;1097;103138;-73
2021/05/06 16:21:26;;;;;;;2.75;2.30;;;;;;;12.70;41.51;99265.34;153457;1104;103133;-73
2021/05/06 16:24:30;;;;;;;4.10;2.10;;;;;;;12.58;41.64;99252.45;153755;1104;103158;-74
2021/05/06 16:27:33;;;;;;;4.07;2.50;;;;;;;12.51;41.17;99248.06;153657;1097;103135;-74
2021/05/06 16:30:37;;;;;;;3.20;2.37;;;;;;;12.49;41.25;99245.60;153713;1104;103199;-73
2021/05/06 16:33:46;;;;;;;3.80;2.90;;;;;;;12.47;41.81;99252.14;153743;1096;103241;-69
2021/05/06 16:36:54;;;;;;;3.47;2.60;;;;;;;12.42;41.50;99242.02;153387;1104;103757;-70
2021/05/06 16:40:05;;;;;;;4.47;2.67;;;;;;;12.29;42.32;99237.34;153692;1104;103134;-74